sensor_id;sensor_type;location;lat;lon;timestamp;P1;durP1;ratioP1;P2;durP2;ratioP2
75234;SDS011;63817;51.228;-1.472;2023-02-12T00:01:20;16.27;;;8.50;;
75234;SDS011;63817;51.228;-1.472;2023-02-12T00:03:47;14.25;;;8.63;;
75234;SDS011;63817;51.228;-1.472;2023-02-12T00:06:12;17.58;;;8.55;;
75234;SDS011;63817;51.228;-1.472;2023-02-12T00:08:38;13.50;;;7.88;;
75234;SDS011;63817;51.228;-1.472;2023-02-12T00:11:11;19.15;;;8.57;;
75234;SDS011;63817;51.228;-1.472;2023-02-12T00:13:41;15.43;;;8.48;;
75234;SDS011;63817;51.228;-1.472;2023-02-12T00:16:07;14.38;;;8.38;;
75234;SDS011;63817;51.228;-1.472;2023-02-12T00:18:35;12.10;;;7.85;;
75234;SDS011;63817;51.228;-1.472;2023-02-12T00:21:00;12.98;;;7.28;;
75234;SDS011;63817;51.228;-1.472;2023-02-12T00:23:26;18.55;;;9.38;;
75234;SDS011;63817;51.228;-1.472;2023-02-12T00:25:51;11.35;;;7.70;;
75234;SDS011;63817;51.228;-1.472;2023-02-12T00:28:16;10.55;;;7.13;;
75234;SDS011;63817;51.228;-1.472;2023-02-12T00:30:42;12.20;;;7.88;;
75234;SDS011;63817;51.228;-1.472;2023-02-12T00:33:07;13.38;;;7.93;;
75234;SDS011;63817;51.228;-1.472;2023-02-12T00:35:33;17.23;;;8.38;;
75234;SDS011;63817;51.228;-1.472;2023-02-12T00:37:58;15.00;;;8.13;;
75234;SDS011;63817;51.228;-1.472;2023-02-12T00:40:24;12.77;;;7.60;;
75234;SDS011;63817;51.228;-1.472;2023-02-12T00:42:49;13.30;;;8.18;;
75234;SDS011;63817;51.228;-1.472;2023-02-12T00:45:15;12.20;;;7.70;;
75234;SDS011;63817;51.228;-1.472;2023-02-12T00:47:40;13.10;;;7.55;;
75234;SDS011;63817;51.228;-1.472;2023-02-12T00:50:06;15.30;;;7.63;;
75234;SDS011;63817;51.228;-1.472;2023-02-12T00:52:31;14.45;;;7.97;;
75234;SDS011;63817;51.228;-1.472;2023-02-12T00:54:57;11.00;;;7.72;;
75234;SDS011;63817;51.228;-1.472;2023-02-12T00:57:22;12.52;;;8.10;;
75234;SDS011;63817;51.228;-1.472;2023-02-12T00:59:48;11.93;;;8.30;;
75234;SDS011;63817;51.228;-1.472;2023-02-12T01:02:13;12.50;;;7.72;;
75234;SDS011;63817;51.228;-1.472;2023-02-12T01:04:38;13.93;;;7.55;;
75234;SDS011;63817;51.228;-1.472;2023-02-12T01:07:04;14.15;;;8.45;;
75234;SDS011;63817;51.228;-1.472;2023-02-12T01:09:29;13.60;;;7.60;;
75234;SDS011;63817;51.228;-1.472;2023-02-12T01:11:55;11.07;;;7.68;;
75234;SDS011;63817;51.228;-1.472;2023-02-12T01:14:20;14.30;;;9.20;;
75234;SDS011;63817;51.228;-1.472;2023-02-12T01:16:46;14.68;;;8.90;;
75234;SDS011;63817;51.228;-1.472;2023-02-12T01:19:11;15.23;;;9.02;;
75234;SDS011;63817;51.228;-1.472;2023-02-12T01:21:37;16.33;;;8.32;;
75234;SDS011;63817;51.228;-1.472;2023-02-12T01:24:02;12.77;;;7.53;;
75234;SDS011;63817;51.228;-1.472;2023-02-12T01:29:31;15.40;;;9.17;;
75234;SDS011;63817;51.228;-1.472;2023-02-12T01:31:57;13.27;;;8.65;;
75234;SDS011;63817;51.228;-1.472;2023-02-12T01:34:22;11.05;;;8.02;;
75234;SDS011;63817;51.228;-1.472;2023-02-12T01:36:47;14.68;;;7.80;;
75234;SDS011;63817;51.228;-1.472;2023-02-12T01:39:13;15.48;;;8.18;;
75234;SDS011;63817;51.228;-1.472;2023-02-12T01:41:39;14.27;;;8.77;;
75234;SDS011;63817;51.228;-1.472;2023-02-12T01:44:07;16.27;;;8.30;;
75234;SDS011;63817;51.228;-1.472;2023-02-12T01:46:45;14.32;;;8.13;;
75234;SDS011;63817;51.228;-1.472;2023-02-12T01:49:15;12.57;;;8.10;;
75234;SDS011;63817;51.228;-1.472;2023-02-12T01:51:42;14.32;;;8.75;;
75234;SDS011;63817;51.228;-1.472;2023-02-12T01:54:10;16.42;;;8.68;;
75234;SDS011;63817;51.228;-1.472;2023-02-12T01:56:36;16.67;;;8.45;;
75234;SDS011;63817;51.228;-1.472;2023-02-12T01:59:02;11.45;;;7.88;;
75234;SDS011;63817;51.228;-1.472;2023-02-12T02:01:28;17.60;;;8.98;;
75234;SDS011;63817;51.228;-1.472;2023-02-12T02:04:16;16.25;;;8.63;;
75234;SDS011;63817;51.228;-1.472;2023-02-12T02:06:43;12.20;;;8.43;;
75234;SDS011;63817;51.228;-1.472;2023-02-12T02:09:12;17.80;;;8.73;;
75234;SDS011;63817;51.228;-1.472;2023-02-12T02:11:38;16.85;;;9.55;;
75234;SDS011;63817;51.228;-1.472;2023-02-12T02:14:26;17.75;;;8.93;;
75234;SDS011;63817;51.228;-1.472;2023-02-12T02:19:44;17.58;;;10.23;;
75234;SDS011;63817;51.228;-1.472;2023-02-12T02:33:24;17.60;;;8.50;;
75234;SDS011;63817;51.228;-1.472;2023-02-12T02:41:24;14.88;;;8.85;;
75234;SDS011;63817;51.228;-1.472;2023-02-12T02:44:12;18.10;;;9.23;;
75234;SDS011;63817;51.228;-1.472;2023-02-12T02:46:45;21.33;;;9.35;;
75234;SDS011;63817;51.228;-1.472;2023-02-12T02:49:26;13.65;;;9.23;;
75234;SDS011;63817;51.228;-1.472;2023-02-12T02:52:03;17.88;;;9.23;;
75234;SDS011;63817;51.228;-1.472;2023-02-12T02:57:03;18.08;;;8.77;;
75234;SDS011;63817;51.228;-1.472;2023-02-12T02:59:34;15.18;;;9.57;;
75234;SDS011;63817;51.228;-1.472;2023-02-12T03:02:10;13.95;;;8.90;;
75234;SDS011;63817;51.228;-1.472;2023-02-12T03:04:42;14.88;;;8.93;;
75234;SDS011;63817;51.228;-1.472;2023-02-12T03:07:43;17.38;;;9.50;;
75234;SDS011;63817;51.228;-1.472;2023-02-12T03:10:13;17.02;;;10.18;;
75234;SDS011;63817;51.228;-1.472;2023-02-12T03:12:53;15.40;;;9.43;;
75234;SDS011;63817;51.228;-1.472;2023-02-12T03:18:04;16.20;;;10.00;;
75234;SDS011;63817;51.228;-1.472;2023-02-12T03:20:41;15.82;;;9.30;;
75234;SDS011;63817;51.228;-1.472;2023-02-12T03:23:09;16.77;;;9.55;;
75234;SDS011;63817;51.228;-1.472;2023-02-12T03:25:38;18.10;;;9.70;;
75234;SDS011;63817;51.228;-1.472;2023-02-12T03:28:26;16.00;;;10.13;;
75234;SDS011;63817;51.228;-1.472;2023-02-12T03:30:59;18.10;;;9.90;;
75234;SDS011;63817;51.228;-1.472;2023-02-12T03:35:58;14.45;;;8.57;;
75234;SDS011;63817;51.228;-1.472;2023-02-12T03:41:55;17.95;;;10.52;;
75234;SDS011;63817;51.228;-1.472;2023-02-12T03:52:18;15.75;;;10.25;;
75234;SDS011;63817;51.228;-1.472;2023-02-12T03:54:43;21.02;;;10.85;;
75234;SDS011;63817;51.228;-1.472;2023-02-12T03:57:11;14.07;;;9.50;;
75234;SDS011;63817;51.228;-1.472;2023-02-12T03:59:38;14.02;;;9.00;;
75234;SDS011;63817;51.228;-1.472;2023-02-12T04:02:04;17.38;;;10.32;;
75234;SDS011;63817;51.228;-1.472;2023-02-12T04:04:30;17.77;;;10.02;;
75234;SDS011;63817;51.228;-1.472;2023-02-12T04:06:55;15.43;;;10.13;;
75234;SDS011;63817;51.228;-1.472;2023-02-12T04:09:21;14.57;;;9.68;;
75234;SDS011;63817;51.228;-1.472;2023-02-12T04:16:53;15.77;;;9.02;;
75234;SDS011;63817;51.228;-1.472;2023-02-12T04:19:24;16.55;;;9.88;;
75234;SDS011;63817;51.228;-1.472;2023-02-12T04:22:00;17.10;;;9.85;;
75234;SDS011;63817;51.228;-1.472;2023-02-12T04:24:57;13.68;;;8.27;;
75234;SDS011;63817;51.228;-1.472;2023-02-12T04:30:22;11.25;;;8.07;;
75234;SDS011;63817;51.228;-1.472;2023-02-12T04:32:51;14.37;;;8.50;;
75234;SDS011;63817;51.228;-1.472;2023-02-12T04:35:26;14.93;;;8.75;;
75234;SDS011;63817;51.228;-1.472;2023-02-12T04:40:23;14.05;;;9.30;;
75234;SDS011;63817;51.228;-1.472;2023-02-12T04:42:51;17.00;;;9.02;;
75234;SDS011;63817;51.228;-1.472;2023-02-12T04:45:21;16.40;;;8.45;;
75234;SDS011;63817;51.228;-1.472;2023-02-12T04:47:48;13.25;;;8.30;;
75234;SDS011;63817;51.228;-1.472;2023-02-12T04:50:14;14.40;;;8.20;;
75234;SDS011;63817;51.228;-1.472;2023-02-12T04:52:39;16.65;;;8.45;;
75234;SDS011;63817;51.228;-1.472;2023-02-12T04:55:05;12.50;;;8.13;;
75234;SDS011;63817;51.228;-1.472;2023-02-12T04:57:30;11.10;;;7.88;;
75234;SDS011;63817;51.228;-1.472;2023-02-12T04:59:56;12.55;;;8.90;;
75234;SDS011;63817;51.228;-1.472;2023-02-12T05:02:21;11.93;;;8.45;;
75234;SDS011;63817;51.228;-1.472;2023-02-12T05:04:48;14.18;;;8.55;;
75234;SDS011;63817;51.228;-1.472;2023-02-12T05:07:14;14.40;;;9.02;;
75234;SDS011;63817;51.228;-1.472;2023-02-12T05:09:39;14.27;;;9.02;;
75234;SDS011;63817;51.228;-1.472;2023-02-12T05:12:05;12.32;;;9.00;;
75234;SDS011;63817;51.228;-1.472;2023-02-12T05:14:31;24.25;;;9.90;;
75234;SDS011;63817;51.228;-1.472;2023-02-12T05:16:56;18.55;;;8.55;;
75234;SDS011;63817;51.228;-1.472;2023-02-12T05:19:22;13.27;;;8.80;;
75234;SDS011;63817;51.228;-1.472;2023-02-12T05:21:48;15.00;;;8.85;;
75234;SDS011;63817;51.228;-1.472;2023-02-12T05:24:15;15.05;;;8.43;;
75234;SDS011;63817;51.228;-1.472;2023-02-12T05:26:40;16.38;;;9.23;;
75234;SDS011;63817;51.228;-1.472;2023-02-12T05:29:06;14.18;;;9.10;;
75234;SDS011;63817;51.228;-1.472;2023-02-12T05:31:31;16.90;;;9.77;;
75234;SDS011;63817;51.228;-1.472;2023-02-12T05:33:57;16.52;;;9.55;;
75234;SDS011;63817;51.228;-1.472;2023-02-12T05:36:23;14.68;;;9.10;;
75234;SDS011;63817;51.228;-1.472;2023-02-12T05:38:49;15.07;;;9.80;;
75234;SDS011;63817;51.228;-1.472;2023-02-12T05:41:17;14.48;;;9.00;;
75234;SDS011;63817;51.228;-1.472;2023-02-12T05:43:46;15.88;;;9.32;;
75234;SDS011;63817;51.228;-1.472;2023-02-12T05:46:11;13.32;;;8.63;;
75234;SDS011;63817;51.228;-1.472;2023-02-12T05:48:38;12.48;;;8.90;;
75234;SDS011;63817;51.228;-1.472;2023-02-12T05:51:05;13.68;;;8.82;;
75234;SDS011;63817;51.228;-1.472;2023-02-12T05:53:34;14.68;;;8.55;;
75234;SDS011;63817;51.228;-1.472;2023-02-12T05:58:35;13.95;;;9.48;;
75234;SDS011;63817;51.228;-1.472;2023-02-12T06:01:00;12.73;;;8.23;;
75234;SDS011;63817;51.228;-1.472;2023-02-12T06:03:26;18.67;;;9.27;;
75234;SDS011;63817;51.228;-1.472;2023-02-12T06:05:51;14.23;;;8.20;;
75234;SDS011;63817;51.228;-1.472;2023-02-12T06:08:17;14.65;;;8.95;;
75234;SDS011;63817;51.228;-1.472;2023-02-12T06:10:42;16.27;;;8.90;;
75234;SDS011;63817;51.228;-1.472;2023-02-12T06:13:08;19.48;;;9.60;;
75234;SDS011;63817;51.228;-1.472;2023-02-12T06:15:35;15.13;;;9.52;;
75234;SDS011;63817;51.228;-1.472;2023-02-12T06:18:01;15.15;;;9.38;;
75234;SDS011;63817;51.228;-1.472;2023-02-12T06:20:26;19.27;;;9.70;;
75234;SDS011;63817;51.228;-1.472;2023-02-12T06:22:51;17.63;;;8.82;;
75234;SDS011;63817;51.228;-1.472;2023-02-12T06:25:17;16.98;;;9.43;;
75234;SDS011;63817;51.228;-1.472;2023-02-12T06:27:42;20.33;;;10.30;;
75234;SDS011;63817;51.228;-1.472;2023-02-12T06:30:08;15.77;;;10.02;;
75234;SDS011;63817;51.228;-1.472;2023-02-12T06:32:33;14.90;;;9.20;;
75234;SDS011;63817;51.228;-1.472;2023-02-12T06:34:59;14.32;;;9.52;;
75234;SDS011;63817;51.228;-1.472;2023-02-12T06:37:24;17.63;;;9.68;;
75234;SDS011;63817;51.228;-1.472;2023-02-12T06:39:50;17.42;;;9.30;;
75234;SDS011;63817;51.228;-1.472;2023-02-12T06:42:15;14.73;;;9.50;;
75234;SDS011;63817;51.228;-1.472;2023-02-12T06:44:40;21.42;;;9.70;;
75234;SDS011;63817;51.228;-1.472;2023-02-12T06:47:06;16.38;;;9.27;;
75234;SDS011;63817;51.228;-1.472;2023-02-12T06:49:31;15.02;;;9.05;;
75234;SDS011;63817;51.228;-1.472;2023-02-12T06:51:56;16.73;;;9.13;;
75234;SDS011;63817;51.228;-1.472;2023-02-12T06:54:22;16.25;;;8.88;;
75234;SDS011;63817;51.228;-1.472;2023-02-12T06:56:47;13.00;;;9.25;;
75234;SDS011;63817;51.228;-1.472;2023-02-12T06:59:14;17.48;;;11.50;;
75234;SDS011;63817;51.228;-1.472;2023-02-12T07:01:40;14.48;;;9.55;;
75234;SDS011;63817;51.228;-1.472;2023-02-12T07:04:05;16.08;;;10.02;;
75234;SDS011;63817;51.228;-1.472;2023-02-12T07:06:32;14.10;;;9.35;;
75234;SDS011;63817;51.228;-1.472;2023-02-12T07:08:58;16.60;;;10.43;;
75234;SDS011;63817;51.228;-1.472;2023-02-12T07:11:24;15.90;;;9.68;;
75234;SDS011;63817;51.228;-1.472;2023-02-12T07:13:54;15.48;;;9.65;;
75234;SDS011;63817;51.228;-1.472;2023-02-12T07:16:20;14.23;;;9.13;;
75234;SDS011;63817;51.228;-1.472;2023-02-12T07:18:46;15.15;;;10.93;;
75234;SDS011;63817;51.228;-1.472;2023-02-12T07:21:11;23.90;;;9.77;;
75234;SDS011;63817;51.228;-1.472;2023-02-12T07:23:38;17.30;;;9.55;;
75234;SDS011;63817;51.228;-1.472;2023-02-12T07:26:05;15.18;;;10.13;;
75234;SDS011;63817;51.228;-1.472;2023-02-12T07:28:32;19.50;;;9.73;;
75234;SDS011;63817;51.228;-1.472;2023-02-12T07:30:58;20.08;;;10.65;;
75234;SDS011;63817;51.228;-1.472;2023-02-12T07:33:34;17.92;;;10.15;;
75234;SDS011;63817;51.228;-1.472;2023-02-12T07:36:00;13.13;;;9.27;;
75234;SDS011;63817;51.228;-1.472;2023-02-12T07:38:25;13.45;;;10.00;;
75234;SDS011;63817;51.228;-1.472;2023-02-12T07:40:51;19.20;;;9.85;;
75234;SDS011;63817;51.228;-1.472;2023-02-12T07:43:16;15.85;;;9.93;;
75234;SDS011;63817;51.228;-1.472;2023-02-12T07:45:42;15.88;;;10.75;;
75234;SDS011;63817;51.228;-1.472;2023-02-12T07:48:07;20.58;;;11.50;;
75234;SDS011;63817;51.228;-1.472;2023-02-12T07:50:32;21.17;;;11.82;;
75234;SDS011;63817;51.228;-1.472;2023-02-12T07:52:58;17.48;;;10.60;;
75234;SDS011;63817;51.228;-1.472;2023-02-12T07:55:23;20.75;;;12.18;;
75234;SDS011;63817;51.228;-1.472;2023-02-12T07:57:49;17.27;;;10.88;;
75234;SDS011;63817;51.228;-1.472;2023-02-12T08:00:15;21.42;;;10.68;;
75234;SDS011;63817;51.228;-1.472;2023-02-12T08:02:41;17.83;;;10.73;;
75234;SDS011;63817;51.228;-1.472;2023-02-12T08:05:06;15.10;;;9.48;;
75234;SDS011;63817;51.228;-1.472;2023-02-12T08:07:31;23.17;;;10.52;;
75234;SDS011;63817;51.228;-1.472;2023-02-12T08:09:57;18.88;;;10.27;;
75234;SDS011;63817;51.228;-1.472;2023-02-12T08:12:22;19.48;;;10.82;;
75234;SDS011;63817;51.228;-1.472;2023-02-12T08:14:48;18.73;;;10.43;;
75234;SDS011;63817;51.228;-1.472;2023-02-12T08:17:13;16.13;;;10.73;;
75234;SDS011;63817;51.228;-1.472;2023-02-12T08:19:39;20.95;;;10.30;;
75234;SDS011;63817;51.228;-1.472;2023-02-12T08:22:04;17.77;;;11.05;;
75234;SDS011;63817;51.228;-1.472;2023-02-12T08:24:30;19.75;;;10.75;;
75234;SDS011;63817;51.228;-1.472;2023-02-12T08:26:56;19.10;;;10.02;;
75234;SDS011;63817;51.228;-1.472;2023-02-12T08:29:22;15.45;;;9.93;;
75234;SDS011;63817;51.228;-1.472;2023-02-12T08:31:49;19.02;;;10.18;;
75234;SDS011;63817;51.228;-1.472;2023-02-12T08:34:19;16.05;;;9.20;;
75234;SDS011;63817;51.228;-1.472;2023-02-12T08:36:46;17.27;;;10.35;;
75234;SDS011;63817;51.228;-1.472;2023-02-12T08:39:13;15.93;;;10.07;;
75234;SDS011;63817;51.228;-1.472;2023-02-12T08:41:38;18.52;;;10.50;;
75234;SDS011;63817;51.228;-1.472;2023-02-12T08:44:06;22.20;;;12.52;;
75234;SDS011;63817;51.228;-1.472;2023-02-12T08:46:33;17.75;;;11.10;;
75234;SDS011;63817;51.228;-1.472;2023-02-12T08:49:03;19.35;;;10.32;;
75234;SDS011;63817;51.228;-1.472;2023-02-12T08:51:34;16.05;;;9.82;;
75234;SDS011;63817;51.228;-1.472;2023-02-12T08:54:00;15.35;;;8.88;;
75234;SDS011;63817;51.228;-1.472;2023-02-12T08:56:28;19.33;;;9.98;;
75234;SDS011;63817;51.228;-1.472;2023-02-12T08:58:55;19.80;;;10.80;;
75234;SDS011;63817;51.228;-1.472;2023-02-12T09:01:22;16.80;;;11.18;;
75234;SDS011;63817;51.228;-1.472;2023-02-12T09:03:48;17.10;;;11.05;;
75234;SDS011;63817;51.228;-1.472;2023-02-12T09:06:15;19.13;;;13.38;;
75234;SDS011;63817;51.228;-1.472;2023-02-12T09:08:42;19.33;;;10.85;;
75234;SDS011;63817;51.228;-1.472;2023-02-12T09:11:11;17.77;;;11.25;;
75234;SDS011;63817;51.228;-1.472;2023-02-12T09:13:38;18.75;;;11.55;;
75234;SDS011;63817;51.228;-1.472;2023-02-12T09:16:05;17.67;;;11.23;;
75234;SDS011;63817;51.228;-1.472;2023-02-12T09:18:31;18.52;;;11.93;;
75234;SDS011;63817;51.228;-1.472;2023-02-12T09:21:06;15.88;;;11.02;;
75234;SDS011;63817;51.228;-1.472;2023-02-12T09:23:36;19.58;;;11.32;;
75234;SDS011;63817;51.228;-1.472;2023-02-12T09:26:06;15.10;;;10.13;;
75234;SDS011;63817;51.228;-1.472;2023-02-12T09:28:32;17.38;;;11.98;;
75234;SDS011;63817;51.228;-1.472;2023-02-12T09:30:58;19.70;;;11.50;;
75234;SDS011;63817;51.228;-1.472;2023-02-12T09:33:23;18.42;;;10.60;;
75234;SDS011;63817;51.228;-1.472;2023-02-12T09:35:49;22.40;;;12.73;;
75234;SDS011;63817;51.228;-1.472;2023-02-12T09:38:15;19.98;;;11.50;;
75234;SDS011;63817;51.228;-1.472;2023-02-12T09:43:22;21.23;;;11.82;;
75234;SDS011;63817;51.228;-1.472;2023-02-12T09:45:56;20.00;;;11.98;;
75234;SDS011;63817;51.228;-1.472;2023-02-12T09:51:07;17.60;;;12.13;;
75234;SDS011;63817;51.228;-1.472;2023-02-12T09:53:34;17.80;;;11.02;;
75234;SDS011;63817;51.228;-1.472;2023-02-12T09:56:02;21.10;;;14.23;;
75234;SDS011;63817;51.228;-1.472;2023-02-12T09:58:34;19.95;;;12.05;;
75234;SDS011;63817;51.228;-1.472;2023-02-12T10:01:13;18.33;;;11.93;;
75234;SDS011;63817;51.228;-1.472;2023-02-12T10:03:40;18.30;;;11.57;;
75234;SDS011;63817;51.228;-1.472;2023-02-12T10:06:07;22.73;;;11.82;;
75234;SDS011;63817;51.228;-1.472;2023-02-12T10:25:57;23.58;;;12.50;;
75234;SDS011;63817;51.228;-1.472;2023-02-12T10:30:56;17.40;;;12.00;;
75234;SDS011;63817;51.228;-1.472;2023-02-12T10:33:27;18.67;;;11.82;;
75234;SDS011;63817;51.228;-1.472;2023-02-12T10:38:41;20.23;;;11.75;;
75234;SDS011;63817;51.228;-1.472;2023-02-12T10:41:09;19.17;;;11.30;;
75234;SDS011;63817;51.228;-1.472;2023-02-12T10:43:38;19.08;;;11.63;;
75234;SDS011;63817;51.228;-1.472;2023-02-12T10:46:03;16.92;;;11.10;;
75234;SDS011;63817;51.228;-1.472;2023-02-12T10:48:32;21.80;;;12.23;;
75234;SDS011;63817;51.228;-1.472;2023-02-12T10:53:36;17.90;;;11.57;;
75234;SDS011;63817;51.228;-1.472;2023-02-12T10:58:38;18.10;;;11.63;;
75234;SDS011;63817;51.228;-1.472;2023-02-12T11:01:04;18.83;;;11.30;;
75234;SDS011;63817;51.228;-1.472;2023-02-12T11:03:41;20.77;;;12.55;;
75234;SDS011;63817;51.228;-1.472;2023-02-12T11:06:16;21.13;;;11.95;;
75234;SDS011;63817;51.228;-1.472;2023-02-12T11:08:46;20.42;;;12.27;;
75234;SDS011;63817;51.228;-1.472;2023-02-12T11:11:17;19.55;;;11.70;;
75234;SDS011;63817;51.228;-1.472;2023-02-12T11:16:46;17.88;;;11.82;;
75234;SDS011;63817;51.228;-1.472;2023-02-12T11:19:19;18.83;;;11.95;;
75234;SDS011;63817;51.228;-1.472;2023-02-12T11:21:49;20.65;;;13.20;;
75234;SDS011;63817;51.228;-1.472;2023-02-12T11:24:26;19.92;;;12.40;;
75234;SDS011;63817;51.228;-1.472;2023-02-12T11:27:12;21.95;;;12.23;;
75234;SDS011;63817;51.228;-1.472;2023-02-12T11:29:47;19.15;;;11.73;;
75234;SDS011;63817;51.228;-1.472;2023-02-12T11:32:34;21.77;;;12.65;;
75234;SDS011;63817;51.228;-1.472;2023-02-12T11:35:11;23.50;;;12.65;;
75234;SDS011;63817;51.228;-1.472;2023-02-12T11:37:47;17.40;;;11.55;;
75234;SDS011;63817;51.228;-1.472;2023-02-12T11:42:46;21.55;;;12.82;;
75234;SDS011;63817;51.228;-1.472;2023-02-12T11:45:17;20.88;;;13.10;;
75234;SDS011;63817;51.228;-1.472;2023-02-12T11:47:44;21.63;;;12.35;;
75234;SDS011;63817;51.228;-1.472;2023-02-12T11:52:53;19.95;;;11.50;;
75234;SDS011;63817;51.228;-1.472;2023-02-12T11:55:23;22.00;;;12.73;;
75234;SDS011;63817;51.228;-1.472;2023-02-12T11:57:51;17.40;;;11.23;;
75234;SDS011;63817;51.228;-1.472;2023-02-12T12:00:26;18.10;;;11.57;;
75234;SDS011;63817;51.228;-1.472;2023-02-12T12:02:57;21.92;;;12.88;;
75234;SDS011;63817;51.228;-1.472;2023-02-12T12:08:05;22.92;;;12.07;;
75234;SDS011;63817;51.228;-1.472;2023-02-12T12:10:39;22.95;;;11.80;;
75234;SDS011;63817;51.228;-1.472;2023-02-12T12:13:10;18.55;;;11.35;;
75234;SDS011;63817;51.228;-1.472;2023-02-12T12:15:48;18.35;;;11.50;;
75234;SDS011;63817;51.228;-1.472;2023-02-12T12:21:27;12.15;;;8.13;;
75234;SDS011;63817;51.228;-1.472;2023-02-12T12:23:59;12.27;;;8.10;;
75234;SDS011;63817;51.228;-1.472;2023-02-12T12:26:28;16.13;;;9.60;;
75234;SDS011;63817;51.228;-1.472;2023-02-12T12:31:30;18.70;;;10.50;;
75234;SDS011;63817;51.228;-1.472;2023-02-12T12:34:08;16.08;;;9.50;;
75234;SDS011;63817;51.228;-1.472;2023-02-12T12:36:45;15.82;;;9.68;;
75234;SDS011;63817;51.228;-1.472;2023-02-12T12:45:46;17.90;;;11.68;;
75234;SDS011;63817;51.228;-1.472;2023-02-12T12:56:20;16.67;;;9.00;;
75234;SDS011;63817;51.228;-1.472;2023-02-12T12:59:06;16.13;;;8.93;;
75234;SDS011;63817;51.228;-1.472;2023-02-12T13:13:20;16.48;;;7.55;;
75234;SDS011;63817;51.228;-1.472;2023-02-12T13:26:56;14.98;;;6.72;;
75234;SDS011;63817;51.228;-1.472;2023-02-12T13:34:56;12.73;;;5.25;;
75234;SDS011;63817;51.228;-1.472;2023-02-12T13:37:46;8.27;;;4.95;;
75234;SDS011;63817;51.228;-1.472;2023-02-12T13:40:31;7.32;;;4.65;;
75234;SDS011;63817;51.228;-1.472;2023-02-12T13:45:41;9.20;;;4.35;;
75234;SDS011;63817;51.228;-1.472;2023-02-12T13:51:16;8.57;;;4.65;;
75234;SDS011;63817;51.228;-1.472;2023-02-12T13:53:57;7.72;;;5.32;;
75234;SDS011;63817;51.228;-1.472;2023-02-12T13:58:56;8.25;;;5.38;;
75234;SDS011;63817;51.228;-1.472;2023-02-12T14:12:15;8.77;;;4.15;;
75234;SDS011;63817;51.228;-1.472;2023-02-12T14:14:43;5.30;;;3.45;;
75234;SDS011;63817;51.228;-1.472;2023-02-12T14:24:53;6.15;;;4.32;;
75234;SDS011;63817;51.228;-1.472;2023-02-12T14:30:01;9.65;;;3.83;;
75234;SDS011;63817;51.228;-1.472;2023-02-12T14:38:00;16.42;;;5.00;;
75234;SDS011;63817;51.228;-1.472;2023-02-12T14:40:47;6.03;;;3.20;;
75234;SDS011;63817;51.228;-1.472;2023-02-12T14:49:00;11.18;;;5.15;;
75234;SDS011;63817;51.228;-1.472;2023-02-12T14:51:38;49.15;;;7.05;;
75234;SDS011;63817;51.228;-1.472;2023-02-12T14:59:47;9.23;;;4.50;;
75234;SDS011;63817;51.228;-1.472;2023-02-12T15:02:23;11.27;;;5.63;;
75234;SDS011;63817;51.228;-1.472;2023-02-12T15:04:55;27.52;;;6.78;;
75234;SDS011;63817;51.228;-1.472;2023-02-12T15:07:29;11.10;;;4.65;;
75234;SDS011;63817;51.228;-1.472;2023-02-12T15:09:58;19.98;;;5.13;;
75234;SDS011;63817;51.228;-1.472;2023-02-12T15:12:42;9.48;;;3.70;;
75234;SDS011;63817;51.228;-1.472;2023-02-12T15:17:58;7.90;;;3.67;;
75234;SDS011;63817;51.228;-1.472;2023-02-12T15:20:34;4.63;;;3.23;;
75234;SDS011;63817;51.228;-1.472;2023-02-12T15:23:27;17.60;;;4.07;;
75234;SDS011;63817;51.228;-1.472;2023-02-12T15:25:57;6.27;;;3.10;;
75234;SDS011;63817;51.228;-1.472;2023-02-12T15:28:24;6.63;;;3.70;;
75234;SDS011;63817;51.228;-1.472;2023-02-12T15:30:57;4.85;;;3.10;;
75234;SDS011;63817;51.228;-1.472;2023-02-12T15:33:26;8.57;;;4.38;;
75234;SDS011;63817;51.228;-1.472;2023-02-12T15:35:53;6.15;;;4.13;;
75234;SDS011;63817;51.228;-1.472;2023-02-12T15:38:19;5.68;;;3.70;;
75234;SDS011;63817;51.228;-1.472;2023-02-12T15:40:54;7.55;;;4.22;;
75234;SDS011;63817;51.228;-1.472;2023-02-12T15:43:20;18.27;;;6.93;;
75234;SDS011;63817;51.228;-1.472;2023-02-12T15:45:55;8.25;;;4.28;;
75234;SDS011;63817;51.228;-1.472;2023-02-12T15:48:21;6.95;;;4.50;;
75234;SDS011;63817;51.228;-1.472;2023-02-12T15:50:52;6.80;;;4.72;;
75234;SDS011;63817;51.228;-1.472;2023-02-12T15:53:22;12.52;;;5.15;;
75234;SDS011;63817;51.228;-1.472;2023-02-12T15:55:48;8.02;;;4.80;;
75234;SDS011;63817;51.228;-1.472;2023-02-12T15:58:58;7.93;;;4.40;;
75234;SDS011;63817;51.228;-1.472;2023-02-12T16:01:07;8.52;;;4.80;;
75234;SDS011;63817;51.228;-1.472;2023-02-12T16:03:39;7.57;;;4.88;;
75234;SDS011;63817;51.228;-1.472;2023-02-12T16:06:06;7.10;;;4.70;;
75234;SDS011;63817;51.228;-1.472;2023-02-12T16:08:38;6.95;;;4.95;;
75234;SDS011;63817;51.228;-1.472;2023-02-12T16:11:05;7.75;;;4.60;;
75234;SDS011;63817;51.228;-1.472;2023-02-12T16:13:39;7.25;;;5.18;;
75234;SDS011;63817;51.228;-1.472;2023-02-12T16:18:36;10.10;;;5.30;;
75234;SDS011;63817;51.228;-1.472;2023-02-12T16:21:03;7.40;;;5.15;;
75234;SDS011;63817;51.228;-1.472;2023-02-12T16:23:43;11.45;;;6.80;;
75234;SDS011;63817;51.228;-1.472;2023-02-12T16:26:23;12.38;;;6.13;;
75234;SDS011;63817;51.228;-1.472;2023-02-12T16:28:51;8.13;;;5.38;;
75234;SDS011;63817;51.228;-1.472;2023-02-12T16:31:18;9.35;;;5.10;;
75234;SDS011;63817;51.228;-1.472;2023-02-12T16:33:48;9.35;;;5.15;;
75234;SDS011;63817;51.228;-1.472;2023-02-12T16:41:29;8.20;;;5.30;;
75234;SDS011;63817;51.228;-1.472;2023-02-12T16:46:23;6.00;;;3.88;;
75234;SDS011;63817;51.228;-1.472;2023-02-12T16:48:50;7.45;;;4.47;;
75234;SDS011;63817;51.228;-1.472;2023-02-12T16:53:53;5.53;;;4.05;;
75234;SDS011;63817;51.228;-1.472;2023-02-12T16:56:21;5.03;;;3.45;;
75234;SDS011;63817;51.228;-1.472;2023-02-12T16:58:49;6.20;;;4.10;;
75234;SDS011;63817;51.228;-1.472;2023-02-12T17:01:24;7.40;;;3.65;;
75234;SDS011;63817;51.228;-1.472;2023-02-12T17:03:54;7.57;;;4.50;;
75234;SDS011;63817;51.228;-1.472;2023-02-12T17:06:26;7.57;;;4.20;;
75234;SDS011;63817;51.228;-1.472;2023-02-12T17:08:52;6.82;;;4.65;;
75234;SDS011;63817;51.228;-1.472;2023-02-12T17:11:18;4.63;;;3.60;;
75234;SDS011;63817;51.228;-1.472;2023-02-12T17:13:44;6.28;;;3.60;;
75234;SDS011;63817;51.228;-1.472;2023-02-12T17:16:10;7.15;;;4.32;;
75234;SDS011;63817;51.228;-1.472;2023-02-12T17:18:36;17.15;;;4.38;;
75234;SDS011;63817;51.228;-1.472;2023-02-12T17:21:03;6.30;;;4.00;;
75234;SDS011;63817;51.228;-1.472;2023-02-12T17:23:31;6.95;;;4.07;;
75234;SDS011;63817;51.228;-1.472;2023-02-12T17:25:56;5.70;;;3.90;;
75234;SDS011;63817;51.228;-1.472;2023-02-12T17:28:22;7.43;;;4.03;;
75234;SDS011;63817;51.228;-1.472;2023-02-12T17:30:49;6.65;;;3.63;;
75234;SDS011;63817;51.228;-1.472;2023-02-12T17:33:15;5.30;;;3.67;;
75234;SDS011;63817;51.228;-1.472;2023-02-12T17:35:40;5.82;;;4.20;;
75234;SDS011;63817;51.228;-1.472;2023-02-12T17:38:06;8.07;;;3.70;;
75234;SDS011;63817;51.228;-1.472;2023-02-12T17:40:33;5.45;;;4.07;;
75234;SDS011;63817;51.228;-1.472;2023-02-12T17:42:59;5.18;;;3.55;;
75234;SDS011;63817;51.228;-1.472;2023-02-12T17:45:24;8.10;;;3.67;;
75234;SDS011;63817;51.228;-1.472;2023-02-12T17:47:49;6.15;;;4.22;;
75234;SDS011;63817;51.228;-1.472;2023-02-12T17:50:15;8.45;;;4.40;;
75234;SDS011;63817;51.228;-1.472;2023-02-12T17:52:41;9.25;;;4.30;;
75234;SDS011;63817;51.228;-1.472;2023-02-12T17:55:07;6.65;;;3.72;;
75234;SDS011;63817;51.228;-1.472;2023-02-12T17:57:32;7.47;;;4.10;;
75234;SDS011;63817;51.228;-1.472;2023-02-12T17:59:58;7.50;;;5.22;;